createdAt,value
2018-03-22T00:01:02.401Z,22.83
2018-03-22T00:03:30.936Z,19.67
2018-03-22T00:05:59.065Z,17.83
2018-03-22T00:08:26.691Z,20.97
2018-03-22T00:10:57.696Z,19.20
2018-03-22T00:13:25.460Z,18.63
2018-03-22T00:15:53.192Z,22.43
2018-03-22T00:18:21.002Z,21.98
2018-03-22T00:20:48.916Z,18.43
2018-03-22T00:23:16.770Z,18.97
2018-03-22T00:25:44.602Z,18.37
2018-03-22T00:28:12.412Z,18.25
2018-03-22T00:30:39.993Z,20.17
2018-03-22T00:33:07.596Z,21.13
2018-03-22T00:35:35.457Z,16.48
2018-03-22T00:38:05.875Z,17.50
2018-03-22T00:40:33.957Z,18.87
2018-03-22T00:43:01.709Z,17.60
2018-03-22T00:45:30.477Z,19.93
2018-03-22T00:47:58.064Z,19.27
2018-03-22T00:50:26.677Z,15.67
2018-03-22T00:52:55.098Z,19.57
2018-03-22T00:55:25.087Z,17.33
2018-03-22T00:57:53.760Z,19.73
2018-03-22T01:00:21.335Z,19.50
2018-03-22T01:02:48.869Z,15.90
2018-03-22T01:05:16.457Z,17.63
2018-03-22T01:07:44.020Z,19.27
2018-03-22T01:10:11.725Z,23.42
2018-03-22T01:12:39.287Z,19.43
2018-03-22T01:15:06.855Z,16.80
2018-03-22T01:17:34.395Z,18.80
2018-03-22T01:20:02.008Z,19.00
2018-03-22T01:22:29.561Z,18.73
2018-03-22T01:24:57.085Z,19.13
2018-03-22T01:27:24.659Z,16.87
2018-03-22T01:29:52.188Z,19.77
2018-03-22T01:32:19.764Z,18.37
2018-03-22T01:34:47.345Z,18.17
2018-03-22T01:37:14.923Z,20.60
2018-03-22T01:39:42.451Z,18.40
2018-03-22T01:42:10.021Z,16.87
2018-03-22T01:44:37.935Z,22.20
2018-03-22T01:47:05.496Z,18.43
2018-03-22T01:49:33.060Z,16.83
2018-03-22T01:52:00.640Z,20.13
2018-03-22T01:54:28.305Z,17.90
2018-03-22T01:56:55.857Z,16.40
2018-03-22T01:59:23.389Z,18.00
2018-03-22T02:01:50.997Z,15.50
2018-03-22T02:04:18.500Z,14.70
2018-03-22T02:06:46.060Z,14.50
2018-03-22T02:09:13.607Z,14.40
2018-03-22T02:11:41.186Z,15.63
2018-03-22T02:14:08.717Z,20.07
2018-03-22T02:16:36.283Z,16.33
2018-03-22T02:19:03.810Z,14.37
2018-03-22T02:21:31.371Z,17.30
2018-03-22T02:23:58.915Z,16.62
2018-03-22T02:26:26.460Z,16.47
2018-03-22T02:28:54.037Z,20.53
2018-03-22T02:31:21.561Z,15.33
2018-03-22T02:33:49.120Z,21.23
2018-03-22T02:36:16.669Z,17.07
2018-03-22T02:38:44.249Z,14.13
2018-03-22T02:41:11.768Z,17.73
2018-03-22T02:43:39.320Z,13.37
2018-03-22T02:46:06.850Z,13.17
2018-03-22T02:48:34.423Z,12.97
2018-03-22T02:51:05.167Z,14.53
2018-03-22T02:53:33.381Z,15.17
2018-03-22T02:56:02.090Z,15.67
2018-03-22T02:58:30.004Z,14.93
2018-03-22T03:00:57.606Z,16.07
2018-03-22T03:03:25.171Z,17.33
2018-03-22T03:05:52.896Z,18.10
2018-03-22T03:08:20.608Z,15.90
2018-03-22T03:10:48.261Z,18.67
2018-03-22T03:13:15.812Z,15.70
2018-03-22T03:15:43.513Z,19.52
2018-03-22T03:18:11.084Z,18.50
2018-03-22T03:20:38.624Z,19.23
2018-03-22T03:23:07.484Z,19.53
2018-03-22T03:25:35.012Z,18.30
2018-03-22T03:28:02.573Z,22.67
2018-03-22T03:30:30.172Z,18.17
2018-03-22T03:32:57.740Z,21.03
2018-03-22T03:35:25.284Z,20.58
2018-03-22T03:37:52.844Z,17.57
2018-03-22T03:40:20.832Z,14.80
2018-03-22T03:42:48.388Z,16.70
2018-03-22T03:45:15.956Z,17.10
2018-03-22T03:47:43.496Z,18.25
2018-03-22T03:50:11.028Z,17.73
2018-03-22T03:52:38.717Z,15.93
2018-03-22T03:55:06.249Z,17.10
2018-03-22T03:57:33.769Z,20.97
2018-03-22T04:00:01.332Z,17.80
2018-03-22T04:02:28.861Z,16.07
2018-03-22T04:04:56.412Z,19.80
2018-03-22T04:07:23.943Z,15.90
2018-03-22T04:09:51.541Z,17.70
2018-03-22T04:12:19.098Z,17.07
2018-03-22T04:14:46.656Z,17.77
2018-03-22T04:17:14.188Z,21.57
2018-03-22T04:19:41.776Z,17.73
2018-03-22T04:22:09.337Z,17.57
2018-03-22T04:24:36.888Z,17.03
2018-03-22T04:27:04.417Z,23.90
2018-03-22T04:29:31.981Z,17.27
2018-03-22T04:31:59.547Z,20.07
2018-03-22T04:34:27.099Z,17.70
2018-03-22T04:36:54.641Z,20.37
2018-03-22T04:39:22.195Z,16.37
2018-03-22T04:41:49.720Z,17.30
2018-03-22T04:44:17.268Z,15.50
2018-03-22T04:46:44.797Z,16.37
2018-03-22T04:49:12.487Z,20.90
2018-03-22T04:51:40.046Z,15.83
2018-03-22T04:54:07.683Z,22.37
2018-03-22T04:56:35.230Z,16.53
2018-03-22T04:59:02.783Z,16.13
2018-03-22T05:01:30.308Z,22.67
2018-03-22T05:03:57.876Z,17.27
2018-03-22T05:06:25.515Z,15.80
2018-03-22T05:08:53.086Z,17.93
2018-03-22T05:11:20.604Z,14.20
2018-03-22T05:13:48.167Z,17.12
2018-03-22T05:16:15.688Z,16.97
2018-03-22T05:18:43.259Z,19.30
2018-03-22T05:21:10.794Z,18.20
2018-03-22T05:23:39.317Z,15.23
2018-03-22T05:26:06.847Z,20.23
2018-03-22T05:28:34.404Z,17.57
2018-03-22T05:31:01.949Z,21.50
2018-03-22T05:33:29.474Z,15.70
2018-03-22T05:35:57.038Z,18.73
2018-03-22T05:38:24.569Z,20.08
2018-03-22T05:40:52.138Z,19.23
2018-03-22T05:43:19.668Z,19.77
2018-03-22T05:45:47.900Z,18.27
2018-03-22T05:48:16.700Z,17.97
2018-03-22T05:50:45.118Z,20.30
2018-03-22T05:53:13.473Z,21.20
2018-03-22T05:55:44.779Z,19.47
2018-03-22T05:58:14.574Z,18.43
2018-03-22T06:00:42.562Z,27.50
2018-03-22T06:03:10.578Z,28.70
2018-03-22T06:05:38.288Z,24.27
2018-03-22T06:08:06.089Z,29.40
2018-03-22T06:10:35.380Z,25.65
2018-03-22T06:13:03.432Z,24.75
2018-03-22T06:15:31.389Z,30.63
2018-03-22T06:17:58.947Z,27.70
2018-03-22T06:20:26.506Z,25.40
2018-03-22T06:22:54.036Z,22.83
2018-03-22T06:25:21.628Z,25.17
2018-03-22T06:27:49.161Z,26.30
2018-03-22T06:30:16.716Z,27.47
2018-03-22T06:32:44.252Z,31.63
2018-03-22T06:35:11.836Z,25.97
2018-03-22T06:37:39.476Z,27.58
2018-03-22T06:40:07.093Z,27.43
2018-03-22T06:42:34.721Z,25.57
2018-03-22T06:45:02.281Z,26.97
2018-03-22T06:47:29.798Z,32.73
2018-03-22T06:49:57.436Z,28.33
2018-03-22T06:52:24.959Z,29.33
2018-03-22T06:54:52.519Z,33.20
2018-03-22T06:57:20.046Z,42.50
2018-03-22T06:59:47.613Z,28.90
2018-03-22T07:02:15.127Z,30.37
2018-03-22T07:04:42.690Z,26.13
2018-03-22T07:07:10.221Z,35.77
2018-03-22T07:09:37.802Z,32.00
2018-03-22T07:12:08.305Z,29.93
2018-03-22T07:14:36.030Z,30.67
2018-03-22T07:17:04.455Z,27.37
2018-03-22T07:19:31.973Z,26.13
2018-03-22T07:21:59.528Z,32.73
2018-03-22T07:24:27.061Z,32.30
2018-03-22T07:26:54.644Z,40.73
2018-03-22T07:29:22.160Z,44.13
2018-03-22T07:31:49.716Z,36.63
2018-03-22T07:34:17.244Z,35.90
2018-03-22T07:36:44.807Z,33.87
2018-03-22T07:39:12.357Z,29.48
2018-03-22T07:41:39.917Z,27.33
2018-03-22T07:44:12.289Z,37.97
2018-03-22T07:46:39.845Z,36.77
2018-03-22T07:49:07.358Z,31.05
2018-03-22T07:51:34.920Z,29.20
2018-03-22T07:54:02.441Z,36.58
2018-03-22T07:56:30.008Z,30.77
2018-03-22T07:58:57.600Z,32.63
2018-03-22T08:01:25.170Z,33.33
2018-03-22T08:03:52.704Z,27.73
2018-03-22T08:06:20.260Z,32.17
2018-03-22T08:08:47.771Z,38.77
2018-03-22T08:11:15.473Z,29.60
2018-03-22T08:13:43.004Z,35.80
2018-03-22T08:16:10.583Z,37.27
2018-03-22T08:18:38.108Z,35.90
2018-03-22T08:21:05.662Z,32.57
2018-03-22T08:23:33.195Z,29.60
2018-03-22T08:26:00.848Z,25.87
2018-03-22T08:28:28.407Z,31.77
2018-03-22T08:30:55.959Z,29.73
2018-03-22T08:33:23.553Z,21.57
2018-03-22T08:35:55.101Z,27.00
2018-03-22T08:38:24.285Z,24.00
2018-03-22T08:40:55.511Z,28.70
2018-03-22T08:43:24.384Z,25.33
2018-03-22T08:45:52.463Z,27.70
2018-03-22T08:48:24.320Z,23.92
2018-03-22T08:50:54.925Z,25.98
2018-03-22T08:53:23.724Z,28.40
2018-03-22T08:55:52.353Z,25.40
2018-03-22T08:58:22.059Z,28.10
2018-03-22T09:00:49.728Z,30.70
2018-03-22T09:03:19.165Z,24.13
2018-03-22T09:05:47.554Z,26.92
2018-03-22T09:08:16.830Z,29.90
2018-03-22T09:10:45.994Z,34.43
2018-03-22T09:13:13.603Z,30.63
2018-03-22T09:15:45.014Z,32.90
2018-03-22T09:18:14.340Z,33.37
2018-03-22T09:20:43.272Z,31.67
2018-03-22T09:23:12.477Z,29.97
2018-03-22T09:25:40.052Z,39.33
2018-03-22T09:28:07.768Z,38.27
2018-03-22T09:30:38.145Z,37.43
2018-03-22T09:33:08.452Z,34.83
2018-03-22T09:35:36.322Z,36.07
2018-03-22T09:38:03.968Z,40.60
2018-03-22T09:40:31.536Z,38.88
2018-03-22T09:42:59.252Z,44.80
2018-03-22T09:45:28.326Z,44.30
2018-03-22T09:47:56.219Z,49.15
2018-03-22T09:50:23.775Z,43.90
2018-03-22T09:52:51.348Z,51.27
2018-03-22T09:55:18.951Z,52.97
2018-03-22T09:57:46.502Z,46.60
2018-03-22T10:00:14.032Z,47.53
2018-03-22T10:02:41.586Z,48.47
2018-03-22T10:05:09.121Z,55.00
2018-03-22T10:07:36.742Z,54.27
2018-03-22T10:10:04.272Z,58.67
2018-03-22T10:12:31.890Z,51.03
2018-03-22T10:14:59.412Z,63.83
2018-03-22T10:17:27.117Z,57.70
2018-03-22T10:19:56.021Z,54.97
2018-03-22T10:22:28.760Z,52.00
2018-03-22T10:25:00.808Z,49.08
2018-03-22T10:27:31.279Z,50.07
2018-03-22T10:30:02.308Z,43.80
2018-03-22T10:32:30.658Z,49.75
2018-03-22T10:35:00.243Z,40.37
2018-03-22T10:37:33.315Z,43.38
2018-03-22T10:40:02.575Z,45.25
2018-03-22T10:42:33.302Z,44.13
2018-03-22T10:45:03.501Z,42.05
2018-03-22T10:47:35.471Z,37.08
2018-03-22T10:50:04.372Z,38.27
2018-03-22T10:52:35.335Z,34.20
2018-03-22T10:55:06.664Z,37.72
2018-03-22T10:57:35.406Z,40.08
2018-03-22T11:00:04.542Z,46.23
2018-03-22T11:02:40.482Z,49.45
2018-03-22T11:05:08.142Z,40.73
2018-03-22T11:07:37.866Z,34.90
2018-03-22T11:10:06.419Z,29.33
2018-03-22T11:12:37.886Z,25.67
2018-03-22T11:15:06.992Z,24.50
2018-03-22T11:17:36.305Z,29.75
2018-03-22T11:20:05.656Z,29.08
2018-03-22T11:22:33.971Z,29.83
2018-03-22T11:25:02.763Z,31.80
2018-03-22T11:27:34.307Z,30.47
2018-03-22T11:30:01.888Z,26.47
2018-03-22T11:32:34.081Z,28.85
2018-03-22T11:35:05.798Z,32.40
2018-03-22T11:37:36.954Z,30.43
2018-03-22T11:40:05.103Z,29.65
2018-03-22T11:42:34.242Z,38.95
2018-03-22T11:45:03.111Z,37.40
2018-03-22T11:47:30.953Z,30.42
2018-03-22T11:49:58.883Z,26.45
2018-03-22T11:52:26.490Z,25.37
2018-03-22T11:54:54.056Z,35.63
2018-03-22T11:57:21.593Z,41.50
2018-03-22T11:59:49.146Z,31.60
2018-03-22T12:02:16.795Z,20.92
2018-03-22T12:04:44.597Z,29.70
2018-03-22T12:07:12.127Z,31.23
2018-03-22T12:09:39.681Z,25.48
2018-03-22T12:12:07.204Z,16.57
2018-03-22T12:14:34.768Z,23.77
2018-03-22T12:17:02.459Z,22.33
2018-03-22T12:19:30.014Z,26.00
2018-03-22T12:21:57.853Z,23.12
2018-03-22T12:24:25.415Z,24.40
2018-03-22T12:26:53.291Z,25.00
2018-03-22T12:29:20.896Z,23.20
2018-03-22T12:31:48.441Z,22.37
2018-03-22T12:34:16.003Z,22.03
2018-03-22T12:36:43.587Z,25.93
2018-03-22T12:39:11.149Z,24.63
2018-03-22T12:41:38.706Z,19.00
2018-03-22T12:44:06.265Z,17.45
2018-03-22T12:46:33.840Z,21.50
2018-03-22T12:49:01.391Z,24.50
2018-03-22T12:51:28.914Z,23.60
2018-03-22T12:53:56.487Z,19.53
2018-03-22T12:56:24.011Z,22.93
2018-03-22T12:58:51.565Z,24.73
2018-03-22T13:01:19.106Z,26.57
2018-03-22T13:03:46.655Z,27.87
2018-03-22T13:06:14.171Z,28.47
2018-03-22T13:08:41.751Z,25.37
2018-03-22T13:11:11.931Z,25.58
2018-03-22T13:13:39.736Z,23.70
2018-03-22T13:16:10.473Z,26.13
2018-03-22T13:18:40.184Z,26.85
2018-03-22T13:21:08.161Z,25.33
2018-03-22T13:23:35.708Z,25.70
2018-03-22T13:26:06.976Z,32.47
2018-03-22T13:28:37.336Z,34.75
2018-03-22T13:31:09.476Z,29.70
2018-03-22T13:33:39.017Z,30.40
2018-03-22T13:36:08.103Z,29.80
2018-03-22T13:38:40.466Z,23.45
2018-03-22T13:41:10.115Z,26.10
2018-03-22T13:43:44.442Z,23.20
2018-03-22T13:46:13.013Z,24.83
2018-03-22T13:48:41.616Z,16.50
2018-03-22T13:51:14.299Z,17.83
2018-03-22T13:53:45.420Z,22.90
2018-03-22T13:56:15.917Z,17.30
2018-03-22T13:58:50.097Z,17.70
2018-03-22T14:01:21.453Z,17.43
2018-03-22T14:03:51.738Z,18.83
2018-03-22T14:06:22.694Z,19.93
2018-03-22T14:08:52.479Z,15.90
2018-03-22T14:11:23.684Z,17.37
2018-03-22T14:13:53.651Z,19.10
2018-03-22T14:16:24.368Z,19.43
2018-03-22T14:18:55.269Z,20.50
2018-03-22T14:21:24.774Z,21.50
2018-03-22T14:23:53.601Z,15.23
2018-03-22T14:26:21.245Z,18.90
2018-03-22T14:28:51.784Z,17.30
2018-03-22T14:31:21.957Z,18.45
2018-03-22T14:33:52.435Z,15.60
2018-03-22T14:36:22.782Z,15.37
2018-03-22T14:38:52.092Z,15.10
2018-03-22T14:41:23.796Z,13.03
2018-03-22T14:43:53.317Z,16.97
2018-03-22T14:46:22.704Z,18.67
2018-03-22T14:48:52.353Z,15.37
2018-03-22T14:51:22.500Z,14.17
2018-03-22T14:53:52.341Z,13.33
2018-03-22T14:56:23.078Z,17.73
2018-03-22T14:58:53.585Z,17.33
2018-03-22T15:01:26.376Z,15.43
2018-03-22T15:03:55.470Z,17.80
2018-03-22T15:06:26.235Z,18.63
2018-03-22T15:08:55.690Z,19.90
2018-03-22T15:11:26.664Z,22.23
2018-03-22T15:13:56.045Z,19.07
2018-03-22T15:16:26.179Z,19.47
2018-03-22T15:18:54.226Z,20.37
2018-03-22T15:21:25.727Z,17.93
2018-03-22T15:23:55.348Z,16.83
2018-03-22T15:26:23.557Z,15.60
2018-03-22T15:28:53.952Z,15.97
2018-03-22T15:31:22.008Z,19.20
2018-03-22T15:33:54.729Z,16.50
2018-03-22T15:36:27.623Z,18.90
2018-03-22T15:38:57.192Z,17.80
2018-03-22T15:41:28.645Z,16.17
2018-03-22T15:43:56.682Z,16.40
2018-03-22T15:46:27.632Z,16.43
2018-03-22T15:48:58.349Z,17.33
2018-03-22T15:51:26.552Z,16.70
2018-03-22T15:53:56.804Z,23.17
2018-03-22T15:56:24.955Z,25.90
2018-03-22T15:58:55.509Z,20.27
2018-03-22T16:01:25.666Z,19.43
2018-03-22T16:03:57.966Z,22.43
2018-03-22T16:06:29.095Z,25.17
2018-03-22T16:08:58.484Z,21.87
2018-03-22T16:11:34.547Z,19.77
2018-03-22T16:14:04.938Z,27.10
2018-03-22T16:16:33.899Z,18.33
2018-03-22T16:19:01.815Z,20.70
2018-03-22T16:21:30.260Z,21.73
2018-03-22T16:24:00.565Z,20.27
2018-03-22T16:26:31.399Z,21.37
2018-03-22T16:28:59.912Z,20.80
2018-03-22T16:31:30.442Z,21.63
2018-03-22T16:33:58.137Z,21.40
2018-03-22T16:36:28.884Z,21.97
2018-03-22T16:38:58.028Z,24.70
2018-03-22T16:41:26.320Z,22.33
2018-03-22T16:43:54.931Z,20.23
2018-03-22T16:46:22.504Z,19.43
2018-03-22T16:48:53.304Z,20.97
2018-03-22T16:51:22.411Z,21.93
2018-03-22T16:53:51.574Z,22.70
2018-03-22T16:56:22.280Z,21.35
2018-03-22T16:58:49.979Z,21.10
2018-03-22T17:01:20.091Z,21.67
2018-03-22T17:03:50.942Z,26.03
2018-03-22T17:06:18.840Z,24.13
2018-03-22T17:08:46.531Z,25.93
2018-03-22T17:11:15.985Z,25.00
2018-03-22T17:13:45.028Z,25.77
2018-03-22T17:16:14.753Z,24.73
2018-03-22T17:18:42.373Z,27.15
2018-03-22T17:21:12.582Z,26.17
2018-03-22T17:23:40.216Z,25.88
2018-03-22T17:26:08.558Z,28.43
2018-03-22T17:28:36.245Z,29.93
2018-03-22T17:31:05.689Z,28.73
2018-03-22T17:33:36.445Z,30.07
2018-03-22T17:36:04.708Z,26.97
2018-03-22T17:38:36.226Z,30.03
2018-03-22T17:41:05.407Z,25.27
2018-03-22T17:43:32.996Z,27.77
2018-03-22T17:46:04.143Z,28.98
2018-03-22T17:48:32.539Z,26.43
2018-03-22T17:51:01.004Z,26.57
2018-03-22T17:53:30.316Z,27.77
2018-03-22T17:56:01.899Z,27.03
2018-03-22T17:58:30.536Z,24.93
2018-03-22T18:01:00.506Z,31.80
2018-03-22T18:03:28.441Z,26.50
2018-03-22T18:05:56.224Z,29.03
2018-03-22T18:08:25.972Z,41.70
2018-03-22T18:11:00.580Z,49.67
2018-03-22T18:13:28.525Z,45.63
2018-03-22T18:16:02.317Z,45.23
2018-03-22T18:18:30.119Z,35.20
2018-03-22T18:21:00.585Z,46.95
2018-03-22T18:23:30.835Z,39.93
2018-03-22T18:25:58.406Z,53.30
2018-03-22T18:28:28.793Z,30.47
2018-03-22T18:30:58.474Z,36.73
2018-03-22T18:33:29.260Z,31.23
2018-03-22T18:36:00.057Z,36.43
2018-03-22T18:38:29.278Z,37.87
2018-03-22T18:40:57.423Z,49.30
2018-03-22T18:43:25.115Z,55.43
2018-03-22T18:45:53.830Z,52.77
2018-03-22T18:48:22.520Z,60.95
2018-03-22T18:50:50.042Z,67.93
2018-03-22T18:53:20.128Z,68.27
2018-03-22T18:55:54.478Z,45.37
2018-03-22T18:58:22.050Z,40.20
2018-03-22T19:00:49.579Z,51.93
2018-03-22T19:03:17.144Z,62.45
2018-03-22T19:05:44.673Z,46.88
2018-03-22T19:08:12.242Z,38.43
2018-03-22T19:10:39.761Z,65.17
2018-03-22T19:13:07.311Z,54.75
2018-03-22T19:15:34.847Z,64.03
2018-03-22T19:18:02.419Z,47.00
2018-03-22T19:20:29.944Z,44.63
2018-03-22T19:22:57.528Z,42.13
2018-03-22T19:25:26.693Z,50.73
2018-03-22T19:27:54.578Z,49.23
2018-03-22T19:30:22.167Z,50.40
2018-03-22T19:32:49.716Z,51.50
2018-03-22T19:35:17.461Z,96.00
2018-03-22T19:37:45.171Z,56.63
2018-03-22T19:40:12.711Z,61.57
2018-03-22T19:42:40.288Z,68.63
2018-03-22T19:45:07.824Z,55.40
2018-03-22T19:47:35.390Z,69.70
2018-03-22T19:50:02.907Z,83.73
2018-03-22T19:52:30.795Z,86.68
2018-03-22T19:54:58.329Z,74.27
2018-03-22T19:57:26.076Z,48.87
2018-03-22T19:59:53.603Z,65.47
2018-03-22T20:02:21.201Z,47.07
2018-03-22T20:04:48.707Z,55.67
2018-03-22T20:07:17.908Z,48.77
2018-03-22T20:09:48.744Z,59.30
2018-03-22T20:12:17.302Z,53.10
2018-03-22T20:14:45.079Z,50.00
2018-03-22T20:17:17.190Z,53.70
2018-03-22T20:19:45.203Z,71.20
2018-03-22T20:22:17.310Z,50.88
2018-03-22T20:24:44.930Z,69.53
2018-03-22T20:27:12.967Z,84.28
2018-03-22T20:29:40.810Z,63.43
2018-03-22T20:32:08.332Z,65.50
2018-03-22T20:34:35.883Z,93.20
2018-03-22T20:37:04.397Z,96.40
2018-03-22T20:39:32.763Z,62.78
2018-03-22T20:42:00.382Z,95.83
2018-03-22T20:44:28.296Z,97.20
2018-03-22T20:46:56.024Z,97.97
2018-03-22T20:49:23.808Z,73.70
2018-03-22T20:51:51.359Z,93.67
2018-03-22T20:54:18.933Z,59.00
2018-03-22T20:56:46.464Z,67.83
2018-03-22T20:59:14.012Z,61.10
2018-03-22T21:01:41.539Z,61.70
2018-03-22T21:04:09.117Z,59.23
2018-03-22T21:06:36.646Z,82.13
2018-03-22T21:09:04.218Z,63.53
2018-03-22T21:11:31.769Z,62.63
2018-03-22T21:13:59.347Z,60.20
2018-03-22T21:16:26.879Z,64.03
2018-03-22T21:18:54.465Z,89.30
2018-03-22T21:21:21.992Z,81.20
2018-03-22T21:23:49.568Z,74.37
2018-03-22T21:26:17.106Z,69.23
2018-03-22T21:28:44.840Z,65.13
2018-03-22T21:31:12.388Z,56.77
2018-03-22T21:33:39.943Z,59.90
2018-03-22T21:36:07.475Z,52.57
2018-03-22T21:38:35.069Z,59.13
2018-03-22T21:41:02.624Z,59.42
2018-03-22T21:43:30.168Z,55.43
2018-03-22T21:45:57.690Z,64.45
2018-03-22T21:48:25.256Z,151.87
2018-03-22T21:50:52.855Z,72.93
2018-03-22T21:53:21.123Z,57.70
2018-03-22T21:55:51.156Z,65.53
2018-03-22T21:58:20.540Z,73.85
2018-03-22T22:00:50.518Z,62.87
2018-03-22T22:03:22.464Z,66.28
2018-03-22T22:05:51.349Z,66.25
2018-03-22T22:08:23.047Z,59.50
2018-03-22T22:10:53.718Z,80.62
2018-03-22T22:13:24.380Z,95.35
2018-03-22T22:15:53.730Z,72.03
2018-03-22T22:18:23.158Z,66.87
2018-03-22T22:20:52.619Z,72.03
2018-03-22T22:23:20.466Z,75.80
2018-03-22T22:25:51.618Z,73.63
2018-03-22T22:28:19.276Z,85.60
2018-03-22T22:30:47.420Z,84.30
2018-03-22T22:33:17.158Z,96.37
2018-03-22T22:35:44.817Z,98.10
2018-03-22T22:38:12.655Z,85.97
2018-03-22T22:40:40.797Z,74.60
2018-03-22T22:43:12.685Z,81.63
2018-03-22T22:45:41.548Z,69.03
2018-03-22T22:48:09.067Z,85.70
2018-03-22T22:50:37.612Z,87.37
2018-03-22T22:53:05.167Z,98.27
2018-03-22T22:55:33.372Z,99.33
2018-03-22T22:58:03.146Z,88.03
2018-03-22T23:00:31.099Z,112.37
2018-03-22T23:02:59.057Z,105.37
2018-03-22T23:05:26.628Z,105.07
2018-03-22T23:07:54.153Z,86.77
2018-03-22T23:10:22.221Z,100.82
2018-03-22T23:12:52.583Z,102.23
2018-03-22T23:15:21.472Z,113.80
2018-03-22T23:17:49.515Z,134.43
2018-03-22T23:20:17.924Z,82.47
2018-03-22T23:22:46.215Z,86.63
2018-03-22T23:25:14.387Z,82.37
2018-03-22T23:27:42.470Z,76.07
2018-03-22T23:30:10.657Z,91.33
2018-03-22T23:32:38.188Z,67.27
2018-03-22T23:35:06.619Z,86.00
2018-03-22T23:37:35.516Z,101.03
2018-03-22T23:40:03.724Z,101.97
2018-03-22T23:42:33.633Z,89.32
2018-03-22T23:45:01.559Z,125.60
2018-03-22T23:47:29.355Z,101.13
2018-03-22T23:49:57.335Z,116.73
2018-03-22T23:52:25.815Z,131.40
2018-03-22T23:54:53.756Z,94.75
2018-03-22T23:57:21.351Z,109.68
2018-03-22T23:59:56.549Z,143.77
